Terminal Aerodrome Forecast
Issued by NWS Cleveland, OH

Home | Current Version | Previous Version | Graphics & Text | Print | Product List | Glossary Off
Versions: 1 2 3 4 5 6 7 8 9 10 11 12 13

989
FTUS41 KCLE 232320
TAFCAK
TAF
KCAK 232320Z 2400/2424 19015G25KT P6SM -SHRA BKN050
      TEMPO 2400/2404 BKN025
     FM240400 22018G28KT P6SM VCSH BKN025
     FM240800 21012KT P6SM OVC040
     FM241500 21015G25KT P6SM BKN050=

USA.gov is the U.S. government's official web portal to all federal, state and local government web resources and services.